createdAt,value
2022-10-12T00:01:38.231Z,6.78
2022-10-12T00:04:11.301Z,7.10
2022-10-12T00:06:38.196Z,6.65
2022-10-12T00:09:11.321Z,7.05
2022-10-12T00:11:45.295Z,7.15
2022-10-12T00:14:27.291Z,7.38
2022-10-12T00:17:00.303Z,7.43
2022-10-12T00:19:27.159Z,6.38
2022-10-12T00:22:00.289Z,7.28
2022-10-12T00:24:27.174Z,7.13
2022-10-12T00:26:54.103Z,6.88
2022-10-12T00:29:27.362Z,7.30
2022-10-12T00:32:00.336Z,6.90
2022-10-12T00:34:33.316Z,6.85
2022-10-12T00:37:06.274Z,7.30
2022-10-12T00:39:33.239Z,6.05
2022-10-12T00:42:06.307Z,5.80
2022-10-12T00:44:46.330Z,5.72
2022-10-12T00:47:29.326Z,5.85
2022-10-12T00:50:09.089Z,6.28
2022-10-12T00:52:50.316Z,6.72
2022-10-12T00:55:19.611Z,6.63
2022-10-12T00:57:54.321Z,5.97
2022-10-12T01:00:21.617Z,6.32
2022-10-12T01:02:49.489Z,6.88
2022-10-12T01:05:23.371Z,6.95
2022-10-12T01:07:50.342Z,5.80
2022-10-12T01:10:24.349Z,6.35
2022-10-12T01:12:51.254Z,6.25
2022-10-12T01:15:24.329Z,6.15
2022-10-12T01:17:58.970Z,6.05
2022-10-12T01:21:04.322Z,6.32
2022-10-12T01:23:56.490Z,5.60
2022-10-12T01:26:55.358Z,6.20
2022-10-12T01:30:00.403Z,6.03
2022-10-12T01:32:52.199Z,6.28
2022-10-12T01:35:51.361Z,5.60
2022-10-12T01:38:51.365Z,6.20
2022-10-12T01:41:25.082Z,5.75
2022-10-12T01:43:58.411Z,5.70
2022-10-12T01:46:25.276Z,6.57
2022-10-12T01:49:07.352Z,5.90
2022-10-12T01:52:01.719Z,6.70
2022-10-12T01:54:55.337Z,6.35
2022-10-12T01:58:01.473Z,6.88
2022-10-12T02:00:35.392Z,6.03
2022-10-12T02:03:33.455Z,6.35
2022-10-12T02:06:19.404Z,6.97
2022-10-12T02:09:17.570Z,6.45
2022-10-12T02:11:51.394Z,6.45
2022-10-12T02:14:33.059Z,6.68
2022-10-12T02:17:07.386Z,6.57
2022-10-12T02:19:45.442Z,6.53
2022-10-12T02:22:12.465Z,6.15
2022-10-12T02:24:47.336Z,6.18
2022-10-12T02:27:21.386Z,5.90
2022-10-12T02:29:48.511Z,5.90
2022-10-12T02:32:26.399Z,5.75
2022-10-12T02:35:00.604Z,6.25
2022-10-12T02:38:05.361Z,6.07
2022-10-12T02:40:38.867Z,5.88
2022-10-12T02:43:39.379Z,5.28
2022-10-12T02:46:09.172Z,5.68
2022-10-12T02:48:36.545Z,5.60
2022-10-12T02:51:10.431Z,5.68
2022-10-12T02:53:37.345Z,5.68
2022-10-12T02:56:14.409Z,6.15
2022-10-12T02:58:45.584Z,5.55
2022-10-12T03:01:19.439Z,5.65
2022-10-12T03:03:46.437Z,5.70
2022-10-12T03:06:19.412Z,5.63
2022-10-12T03:08:46.282Z,5.65
2022-10-12T03:11:20.400Z,6.88
2022-10-12T03:13:53.750Z,6.22
2022-10-12T03:16:27.407Z,5.40
2022-10-12T03:18:54.350Z,5.07
2022-10-12T03:21:27.424Z,5.40
2022-10-12T03:23:54.428Z,5.03
2022-10-12T03:26:27.379Z,5.03
2022-10-12T03:29:00.457Z,5.70
2022-10-12T03:31:27.392Z,5.35
2022-10-12T03:33:54.301Z,5.70
2022-10-12T03:36:27.386Z,5.47
2022-10-12T03:38:54.458Z,5.82
2022-10-12T03:41:27.398Z,4.72
2022-10-12T03:43:54.536Z,5.00
2022-10-12T03:46:28.403Z,5.13
2022-10-12T03:48:55.295Z,5.38
2022-10-12T03:51:28.432Z,5.05
2022-10-12T03:53:55.329Z,5.25
2022-10-12T03:56:28.463Z,5.35
2022-10-12T03:59:02.456Z,5.72
2022-10-12T04:01:29.484Z,5.32
2022-10-12T04:04:02.402Z,4.97
2022-10-12T04:06:35.466Z,5.30
2022-10-12T04:09:02.437Z,5.43
2022-10-12T04:11:35.507Z,5.28
2022-10-12T04:14:02.561Z,5.68
2022-10-12T04:16:36.462Z,5.50
2022-10-12T04:19:03.686Z,5.45
2022-10-12T04:21:31.480Z,5.03
2022-10-12T04:24:05.420Z,5.82
2022-10-12T04:26:38.462Z,5.25
2022-10-12T04:29:05.448Z,5.03
2022-10-12T04:31:38.464Z,5.43
2022-10-12T04:34:11.472Z,5.85
2022-10-12T04:36:38.419Z,5.43
2022-10-12T04:39:11.479Z,5.47
2022-10-12T04:41:38.372Z,5.00
2022-10-12T04:44:06.201Z,4.90
2022-10-12T04:46:40.459Z,5.38
2022-10-12T04:49:07.446Z,5.60
2022-10-12T04:51:40.450Z,5.10
2022-10-12T04:54:07.535Z,4.85
2022-10-12T04:56:44.161Z,4.90
2022-10-12T04:59:13.899Z,5.13
2022-10-12T05:01:47.567Z,4.93
2022-10-12T05:04:14.496Z,5.43
2022-10-12T05:06:41.569Z,5.75
2022-10-12T05:09:17.103Z,5.55
2022-10-12T05:11:44.589Z,5.53
2022-10-12T05:14:18.459Z,5.30
2022-10-12T05:16:45.384Z,5.03
2022-10-12T05:19:18.492Z,5.00
2022-10-12T05:21:45.406Z,4.72
2022-10-12T05:24:18.540Z,5.60
2022-10-12T05:26:46.056Z,5.45
2022-10-12T05:29:19.507Z,5.22
2022-10-12T05:31:52.569Z,5.72
2022-10-12T05:34:19.750Z,5.18
2022-10-12T05:36:46.859Z,4.85
2022-10-12T05:39:20.539Z,5.18
2022-10-12T05:41:53.227Z,5.05
2022-10-12T05:44:36.537Z,4.35
2022-10-12T05:47:03.572Z,4.55
2022-10-12T05:49:37.597Z,4.97
2022-10-12T05:52:14.502Z,4.40
2022-10-12T05:54:41.390Z,4.90
2022-10-12T05:57:14.464Z,4.47
2022-10-12T05:59:44.744Z,4.63
2022-10-12T06:02:22.494Z,5.10
2022-10-12T06:04:55.474Z,5.20
2022-10-12T06:07:28.517Z,5.50
2022-10-12T06:10:01.577Z,5.60
2022-10-12T06:12:35.726Z,5.38
2022-10-12T06:15:16.532Z,10.30
2022-10-12T06:17:49.544Z,17.08
2022-10-12T06:20:23.502Z,20.25
2022-10-12T06:22:50.404Z,9.10
2022-10-12T06:25:17.408Z,7.15
2022-10-12T06:27:52.554Z,6.38
2022-10-12T06:30:25.492Z,7.93
2022-10-12T06:32:58.482Z,8.30
2022-10-12T06:35:31.552Z,8.05
2022-10-12T06:37:58.426Z,7.20
2022-10-12T06:40:31.494Z,6.57
2022-10-12T06:42:58.738Z,5.55
2022-10-12T06:45:32.549Z,6.40
2022-10-12T06:48:05.560Z,7.20
2022-10-12T06:50:38.499Z,6.50
2022-10-12T06:53:05.433Z,6.93
2022-10-12T06:55:38.551Z,6.28
2022-10-12T06:58:05.557Z,6.60
2022-10-12T07:00:38.511Z,6.40
2022-10-12T07:03:05.416Z,6.00
2022-10-12T07:05:38.557Z,6.13
2022-10-12T07:08:05.567Z,6.53
2022-10-12T07:10:32.477Z,6.10
2022-10-12T07:13:05.546Z,6.18
2022-10-12T07:15:38.621Z,5.35
2022-10-12T07:18:05.604Z,5.25
2022-10-12T07:20:32.474Z,6.03
2022-10-12T07:23:05.547Z,5.60
2022-10-12T07:25:38.549Z,5.57
2022-10-12T07:28:05.524Z,5.72
2022-10-12T07:30:39.837Z,5.93
2022-10-12T07:33:16.339Z,6.75
2022-10-12T07:36:10.708Z,7.53
2022-10-12T07:38:40.108Z,6.72
2022-10-12T07:41:10.340Z,6.50
2022-10-12T07:43:37.294Z,6.28
2022-10-12T07:46:11.540Z,6.53
2022-10-12T07:48:38.510Z,5.97
2022-10-12T07:51:16.553Z,6.25
2022-10-12T07:53:43.485Z,7.00
2022-10-12T07:56:17.549Z,6.30
2022-10-12T07:58:55.118Z,5.97
2022-10-12T08:01:30.615Z,6.25
2022-10-12T08:04:01.516Z,5.63
2022-10-12T08:06:38.552Z,6.43
2022-10-12T08:09:05.769Z,6.88
2022-10-12T08:11:39.539Z,7.10
2022-10-12T08:14:10.718Z,7.50
2022-10-12T08:16:44.600Z,6.78
2022-10-12T08:19:11.786Z,7.35
2022-10-12T08:21:45.590Z,7.10
2022-10-12T08:24:19.621Z,6.95
2022-10-12T08:26:52.611Z,6.43
2022-10-12T08:29:19.486Z,6.88
2022-10-12T08:31:52.554Z,6.90
2022-10-12T08:34:25.583Z,7.20
2022-10-12T08:36:52.407Z,6.95
2022-10-12T08:39:19.269Z,7.13
2022-10-12T08:42:19.559Z,6.97
2022-10-12T08:45:08.609Z,7.18
2022-10-12T08:47:47.299Z,7.18
2022-10-12T08:50:48.694Z,7.40
2022-10-12T08:53:20.368Z,7.05
2022-10-12T08:55:53.574Z,7.18
2022-10-12T08:58:34.828Z,7.72
2022-10-12T09:01:39.676Z,7.13
2022-10-12T09:04:47.005Z,8.07
2022-10-12T09:07:41.584Z,7.18
2022-10-12T09:10:28.439Z,8.15
2022-10-12T09:13:10.843Z,7.57
2022-10-12T09:15:43.332Z,8.70
2022-10-12T09:18:25.619Z,8.65
2022-10-12T09:20:52.857Z,8.68
2022-10-12T09:23:37.621Z,10.43
2022-10-12T09:26:23.229Z,8.85
2022-10-12T09:29:02.700Z,10.52
2022-10-12T09:32:25.959Z,9.82
2022-10-12T09:34:59.626Z,8.93
2022-10-12T09:37:29.367Z,9.52
2022-10-12T09:39:56.370Z,10.05
2022-10-12T09:42:29.662Z,10.23
2022-10-12T09:45:09.620Z,12.10
2022-10-12T09:47:36.492Z,9.95
2022-10-12T09:50:13.668Z,11.27
2022-10-12T09:52:44.093Z,13.20
2022-10-12T09:55:22.657Z,11.80
2022-10-12T09:58:00.072Z,11.32
2022-10-12T10:00:38.642Z,11.25
2022-10-12T10:03:05.524Z,11.75
2022-10-12T10:05:43.609Z,12.90
2022-10-12T10:08:21.170Z,11.88
2022-10-12T10:11:01.872Z,11.45
2022-10-12T10:13:30.599Z,13.60
2022-10-12T10:16:15.689Z,15.88
2022-10-12T10:18:49.487Z,14.35
2022-10-12T10:21:31.651Z,16.80
2022-10-12T10:24:00.443Z,18.42
2022-10-12T10:26:35.639Z,19.88
2022-10-12T10:29:36.799Z,17.25
2022-10-12T10:32:27.655Z,24.05
2022-10-12T10:35:25.844Z,20.25
2022-10-12T10:38:01.706Z,21.83
2022-10-12T10:40:31.052Z,19.60
2022-10-12T10:43:08.668Z,21.95
2022-10-12T10:45:56.644Z,22.58
2022-10-12T10:48:28.775Z,26.52
2022-10-12T10:51:06.729Z,27.45
2022-10-12T10:53:47.060Z,22.83
2022-10-12T10:56:32.689Z,22.75
2022-10-12T10:59:09.747Z,21.85
2022-10-12T11:02:03.002Z,24.33
2022-10-12T11:04:37.403Z,22.52
2022-10-12T11:07:26.684Z,20.85
2022-10-12T11:09:56.644Z,29.35
2022-10-12T11:12:46.677Z,31.10
2022-10-12T11:15:24.136Z,26.38
2022-10-12T11:18:01.719Z,26.17
2022-10-12T11:20:41.744Z,21.90
2022-10-12T11:23:35.677Z,24.02
2022-10-12T11:26:37.956Z,22.13
2022-10-12T11:29:11.717Z,22.33
2022-10-12T11:31:47.815Z,25.65
2022-10-12T11:34:19.791Z,26.00
2022-10-12T11:37:18.786Z,21.38
2022-10-12T11:39:44.667Z,25.90
2022-10-12T11:42:27.694Z,22.33
2022-10-12T11:44:54.610Z,23.35
2022-10-12T11:47:38.706Z,21.50
2022-10-12T11:50:30.709Z,23.90
2022-10-12T11:52:58.088Z,21.33
2022-10-12T11:56:07.730Z,26.02
2022-10-12T11:59:00.587Z,21.95
2022-10-12T12:02:03.504Z,25.00
2022-10-12T12:04:47.499Z,23.73
2022-10-12T12:07:49.724Z,24.30
2022-10-12T12:10:25.673Z,27.20
2022-10-12T12:13:16.750Z,23.55
2022-10-12T12:16:04.727Z,22.63
2022-10-12T12:18:38.753Z,21.95
2022-10-12T12:21:07.115Z,21.52
2022-10-12T12:23:59.819Z,22.25
2022-10-12T12:26:28.304Z,19.92
2022-10-12T12:29:21.727Z,18.35
2022-10-12T12:31:58.933Z,18.42
2022-10-12T12:34:32.743Z,17.92
2022-10-12T12:36:59.794Z,17.17
2022-10-12T12:39:38.792Z,18.73
2022-10-12T12:42:08.814Z,24.42
2022-10-12T12:44:47.754Z,21.95
2022-10-12T12:50:42.772Z,18.85
2022-10-12T12:53:24.746Z,19.50
2022-10-12T12:56:20.714Z,18.83
2022-10-12T12:59:08.608Z,16.80
2022-10-12T13:02:18.753Z,15.13
2022-10-12T13:05:22.497Z,18.35
2022-10-12T13:08:59.756Z,16.83
2022-10-12T13:11:59.461Z,17.17
2022-10-12T13:15:03.800Z,16.63
2022-10-12T13:18:28.391Z,16.88
2022-10-12T13:21:00.711Z,15.27
2022-10-12T13:23:33.805Z,18.63
2022-10-12T13:26:06.924Z,19.90
2022-10-12T13:28:44.846Z,16.70
2022-10-12T13:31:26.062Z,16.42
2022-10-12T13:34:07.778Z,14.32
2022-10-12T13:36:36.646Z,13.65
2022-10-12T13:39:22.783Z,13.57
2022-10-12T13:41:52.235Z,14.55
2022-10-12T13:44:40.806Z,18.98
2022-10-12T13:47:31.059Z,21.55
2022-10-12T13:50:04.889Z,19.73
2022-10-12T13:52:33.683Z,19.48
2022-10-12T13:55:07.781Z,15.75
2022-10-12T13:57:41.894Z,15.77
2022-10-12T14:00:29.804Z,14.27
2022-10-12T14:03:01.811Z,20.98
2022-10-12T14:05:37.797Z,20.92
2022-10-12T14:08:15.746Z,23.15
2022-10-12T14:10:49.817Z,17.83
2022-10-12T14:13:32.934Z,15.98
2022-10-12T14:16:07.819Z,13.02
2022-10-12T14:18:52.886Z,13.45
2022-10-12T14:21:36.838Z,19.35
2022-10-12T14:24:10.281Z,17.58
2022-10-12T14:26:51.127Z,15.18
2022-10-12T14:29:44.395Z,17.63
2022-10-12T14:32:17.812Z,15.55
2022-10-12T14:34:48.804Z,14.95
2022-10-12T14:37:15.614Z,16.10
2022-10-12T14:39:50.814Z,19.65
2022-10-12T14:42:20.874Z,16.17
2022-10-12T14:44:54.830Z,17.08
2022-10-12T14:47:29.827Z,20.73
2022-10-12T14:50:04.842Z,20.02
2022-10-12T14:52:48.126Z,17.42
2022-10-12T14:55:32.850Z,16.20
2022-10-12T14:57:59.849Z,16.50
2022-10-12T15:00:40.857Z,20.88
2022-10-12T15:03:07.780Z,17.27
2022-10-12T15:05:40.850Z,17.50
2022-10-12T15:08:07.755Z,19.95
2022-10-12T15:10:40.876Z,16.73
2022-10-12T15:13:07.990Z,15.10
2022-10-12T15:15:52.855Z,17.17
2022-10-12T15:18:25.849Z,16.05
2022-10-12T15:20:53.616Z,16.80
2022-10-12T15:23:27.195Z,19.55
2022-10-12T15:25:55.616Z,18.08
2022-10-12T15:28:29.997Z,17.25
2022-10-12T15:31:17.903Z,16.15
2022-10-12T15:33:51.898Z,15.82
2022-10-12T15:36:24.879Z,15.48
2022-10-12T15:38:51.975Z,15.70
2022-10-12T15:41:25.877Z,16.02
2022-10-12T15:43:52.771Z,18.83
2022-10-12T15:46:19.651Z,17.08
2022-10-12T15:48:52.865Z,17.50
2022-10-12T15:51:22.365Z,16.80
2022-10-12T15:53:58.904Z,16.52
2022-10-12T15:56:25.796Z,16.42
2022-10-12T15:58:52.663Z,23.80
2022-10-12T16:01:25.948Z,31.15
2022-10-12T16:03:52.892Z,31.27
2022-10-12T16:06:25.912Z,26.20
2022-10-12T16:08:52.822Z,24.83
2022-10-12T16:11:25.883Z,19.15
2022-10-12T16:13:56.685Z,15.43
2022-10-12T16:16:24.000Z,15.70
2022-10-12T16:18:57.878Z,15.27
2022-10-12T16:21:24.743Z,15.65
2022-10-12T16:23:57.914Z,15.50
2022-10-12T16:26:30.888Z,14.27
2022-10-12T16:29:03.955Z,14.20
2022-10-12T16:31:30.972Z,15.40
2022-10-12T16:34:04.969Z,14.50
2022-10-12T16:36:31.974Z,15.25
2022-10-12T16:39:04.975Z,15.80
2022-10-12T16:41:34.044Z,13.80
2022-10-12T16:44:01.130Z,14.52
2022-10-12T16:46:34.932Z,16.35
2022-10-12T16:49:01.762Z,15.75
2022-10-12T16:51:34.948Z,16.33
2022-10-12T16:54:01.911Z,16.80
2022-10-12T16:56:38.575Z,16.65
2022-10-12T16:59:06.329Z,17.50
2022-10-12T17:01:39.918Z,17.02
2022-10-12T17:04:06.810Z,18.65
2022-10-12T17:06:33.685Z,17.50
2022-10-12T17:09:07.937Z,16.67
2022-10-12T17:11:35.946Z,16.83
2022-10-12T17:14:10.995Z,16.10
2022-10-12T17:16:43.918Z,15.23
2022-10-12T17:19:10.782Z,16.35
2022-10-12T17:21:37.705Z,16.42
2022-10-12T17:24:11.989Z,16.65
2022-10-12T17:26:41.051Z,17.98
2022-10-12T17:29:16.938Z,16.70
2022-10-12T17:31:43.902Z,15.77
2022-10-12T17:34:31.953Z,16.75
2022-10-12T17:37:00.089Z,17.80
2022-10-12T17:39:28.417Z,17.27
2022-10-12T17:42:01.952Z,16.88
2022-10-12T17:44:28.865Z,16.75
2022-10-12T17:47:01.974Z,17.08
2022-10-12T17:49:29.054Z,16.63
2022-10-12T17:52:01.951Z,16.05
2022-10-12T17:54:28.880Z,17.02
2022-10-12T17:57:01.981Z,17.10
2022-10-12T17:59:28.892Z,17.55
2022-10-12T18:02:02.257Z,19.40
2022-10-12T18:04:29.135Z,18.40
2022-10-12T18:07:02.990Z,19.15
2022-10-12T18:09:30.672Z,18.90
2022-10-12T18:12:03.996Z,19.67
2022-10-12T18:14:37.673Z,20.30
2022-10-12T18:17:10.985Z,19.15
2022-10-12T18:19:38.146Z,20.92
2022-10-12T18:22:11.937Z,21.15
2022-10-12T18:24:40.172Z,22.67
2022-10-12T18:27:13.994Z,21.80
2022-10-12T18:29:40.937Z,22.00
2022-10-12T18:32:13.987Z,22.73
2022-10-12T18:34:40.982Z,22.35
2022-10-12T18:37:13.998Z,21.15
2022-10-12T18:39:40.960Z,23.42
2022-10-12T18:42:14.107Z,21.98
2022-10-12T18:44:41.138Z,21.50
2022-10-12T18:47:08.120Z,22.55
2022-10-12T18:49:42.112Z,22.63
2022-10-12T18:52:09.067Z,22.85
2022-10-12T18:54:42.028Z,22.63
2022-10-12T18:57:08.888Z,24.80
2022-10-12T18:59:42.028Z,22.77
2022-10-12T19:02:10.690Z,22.63
2022-10-12T19:04:37.757Z,23.95
2022-10-12T19:07:11.017Z,23.40
2022-10-12T19:09:37.965Z,24.95
2022-10-12T19:12:04.885Z,24.58
2022-10-12T19:14:38.040Z,23.95
2022-10-12T19:17:11.040Z,25.58
2022-10-12T19:19:37.950Z,25.33
2022-10-12T19:22:11.038Z,22.45
2022-10-12T19:24:37.969Z,24.02
2022-10-12T19:27:11.039Z,21.95
2022-10-12T19:29:45.868Z,24.10
2022-10-12T19:32:13.066Z,23.92
2022-10-12T19:34:46.028Z,23.10
2022-10-12T19:37:12.988Z,22.95
2022-10-12T19:39:39.900Z,22.45
2022-10-12T19:42:13.040Z,21.63
2022-10-12T19:44:39.895Z,20.77
2022-10-12T19:47:13.042Z,22.63
2022-10-12T19:49:44.477Z,21.88
2022-10-12T19:52:19.427Z,20.75
2022-10-12T19:54:46.668Z,22.50
2022-10-12T19:57:20.076Z,21.63
2022-10-12T19:59:46.969Z,20.67
2022-10-12T20:02:20.405Z,21.33
2022-10-12T20:04:47.554Z,23.77
2022-10-12T20:07:21.050Z,24.48
2022-10-12T20:09:47.894Z,24.38
2022-10-12T20:12:14.948Z,37.70
2022-10-12T20:14:48.077Z,27.58
2022-10-12T20:17:14.970Z,23.58
2022-10-12T20:19:48.031Z,22.85
2022-10-12T20:22:15.201Z,22.52
2022-10-12T20:24:49.026Z,24.20
2022-10-12T20:27:15.888Z,23.67
2022-10-12T20:29:42.746Z,24.33
2022-10-12T20:32:16.257Z,23.60
2022-10-12T20:34:43.445Z,27.40
2022-10-12T20:37:17.055Z,26.73
2022-10-12T20:39:44.015Z,28.30
2022-10-12T20:42:21.435Z,27.98
2022-10-12T20:44:55.075Z,25.10
2022-10-12T20:47:28.095Z,24.33
2022-10-12T20:49:54.945Z,23.77
2022-10-12T20:52:22.025Z,24.02
2022-10-12T20:54:58.465Z,21.38
2022-10-12T20:57:25.499Z,22.60
2022-10-12T21:00:04.318Z,23.17
2022-10-12T21:02:31.407Z,23.42
2022-10-12T21:05:05.144Z,24.20
2022-10-12T21:07:38.448Z,23.52
2022-10-12T21:10:06.392Z,22.35
2022-10-12T21:12:40.802Z,22.48
2022-10-12T21:15:09.148Z,21.80
2022-10-12T21:17:36.370Z,22.33
2022-10-12T21:20:10.320Z,24.15
2022-10-12T21:22:37.325Z,23.52
2022-10-12T21:25:11.285Z,22.65
2022-10-12T21:27:45.090Z,22.73
2022-10-12T21:30:19.185Z,21.25
2022-10-12T21:32:46.309Z,22.60
2022-10-12T21:35:20.124Z,21.50
2022-10-12T21:37:47.061Z,20.95
2022-10-12T21:40:21.172Z,21.83
2022-10-12T21:42:48.137Z,21.48
2022-10-12T21:45:22.316Z,22.73
2022-10-12T21:47:49.442Z,22.45
2022-10-12T21:50:23.175Z,22.58
2022-10-12T21:52:50.311Z,22.30
2022-10-12T21:55:24.129Z,22.42
2022-10-12T21:57:51.070Z,21.15
2022-10-12T22:00:18.897Z,21.35
2022-10-12T22:02:52.188Z,21.58
2022-10-12T22:05:19.244Z,21.75
2022-10-12T22:07:53.147Z,20.08
2022-10-12T22:10:20.180Z,19.48
2022-10-12T22:12:54.164Z,19.15
2022-10-12T22:15:27.241Z,19.35
2022-10-12T22:17:54.187Z,18.88
2022-10-12T22:20:28.225Z,19.98
2022-10-12T22:22:55.252Z,19.23
2022-10-12T22:25:29.250Z,18.02
2022-10-12T22:28:02.254Z,18.63
2022-10-12T22:30:29.247Z,19.05
2022-10-12T22:33:03.232Z,18.92
2022-10-12T22:35:37.262Z,18.83
2022-10-12T22:38:11.252Z,17.83
2022-10-12T22:40:38.289Z,18.83
2022-10-12T22:43:12.270Z,17.25
2022-10-12T22:45:39.495Z,17.10
2022-10-12T22:48:13.229Z,17.83
2022-10-12T22:50:40.249Z,17.40
2022-10-12T22:53:13.249Z,16.95
2022-10-12T22:55:47.245Z,16.90
2022-10-12T22:58:21.257Z,16.90
2022-10-12T23:09:14.627Z,18.45
2022-10-12T23:11:48.229Z,17.02
2022-10-12T23:14:15.063Z,17.63
2022-10-12T23:16:41.967Z,16.42
2022-10-12T23:19:16.318Z,16.88
2022-10-12T23:21:43.260Z,16.17
2022-10-12T23:24:17.161Z,17.95
2022-10-12T23:26:44.077Z,17.58
2022-10-12T23:29:17.182Z,18.52
2022-10-12T23:31:44.022Z,18.45
2022-10-12T23:34:17.209Z,17.77
2022-10-12T23:36:44.057Z,18.02
2022-10-12T23:39:17.189Z,16.65
2022-10-12T23:41:44.202Z,17.40
2022-10-12T23:44:11.284Z,16.13
2022-10-12T23:46:44.206Z,15.70
2022-10-12T23:49:11.059Z,17.00
2022-10-12T23:51:37.982Z,15.43
2022-10-12T23:54:11.186Z,15.50
2022-10-12T23:56:38.002Z,15.50
2022-10-12T23:59:11.199Z,15.50
